Duxbury, Vermont
Current Conditions -  °F | °C
As of 6:54 AM on Thursday 18 Dec 2014 (Local Time) from KMVL Reporting Station
Light Snow Light Snow  
Wind Chill: 28°   Ceiling: 2200
Heat Index: 34°   Visibility: 8mi
Dew Point: 28°   Wind: 7mph
Humidity: 79%   Direction: NA
Pressure: 29.77"   Gusts: NA
Location:  44.3961°N, 72.808°W
Report Text: KMVL 181154Z AUTO VRB06KT 8SM -SN BKN022 OVC030 01/M02 A2977 RMK AO2 SLP088 P0000 60000 I6000 T00111022 10011 20006 53012 TSNO
Loading
Personal Weather Stations






























Interactive Weather Map New forecast layout! Learn more

10-Day Weather Forecast

Advertisements
Track Severe Weather on mobile